Shelbyville, Illinois
Current Conditions -  °F | °C
As of 9:15 PM on Monday 26 Jan 2015 (Local Time) from K1H2 Reporting Station
Haze Haze  
Wind Chill: 25°   Ceiling: 500
Heat Index: 30°   Visibility: 4mi
Dew Point: 28°   Wind: 5mph
Humidity: 90%   Direction: 170°S
Pressure: 29.93"   Gusts: NA
Location:  39.41°N, 88.79°W
Report Text: K1H2 270315Z AUTO 17004KT 4SM BR BKN005 OVC025 M01/M02 A2993 RMK AO2 T10101025
Loading
Personal Weather Stations






























Interactive Weather Map New forecast layout! Learn more

10-Day Weather Forecast

Advertisements
Track Severe Weather on mobile